F/V Atalante — FVRQ — position and weather

sailwx.info

Track history (hours):
 
Tides and Currents Weather Stations Pressure Air Temp Water Temp Dewpoint Dewpoint Depression Visibility Wind Speed Wind Dir Waves Ship Positions

F/V Atalante

Last reported at 2017-Jun-23 11:35 UTC. Time now 2017-Jun-23 12:14 UTC.
Position N 45°57' W 001°35'.

Length 21 m; draft 3.9 m.

Type: Fishing. MMSI: 228854000.

Date/timePositionNaut miles runAvg speedWind from/ knotsBaromVisibWave heightAir tempDewpointWater temp
2017-Jun-23 11:35N 45°57' W 001°35'0 4.2
2017-Jun-23 11:30N 45°57' W 001°35'2 2.4
2017-Jun-23 10:40N 45°55' W 001°35'7 2.9
2017-Jun-23 08:09N 46°02' W 001°38'0 3.1
2017-Jun-23 08:00N 46°01' W 001°38'2 3.2
2017-Jun-23 07:29N 46°00' W 001°40'4 2.8
2017-Jun-23 06:05N 45°59' W 001°45'0 2.5
2017-Jun-23 05:58N 45°58' W 001°45'6 2.1
2017-Jun-23 02:56N 46°00' W 001°36'4 2.5
2017-Jun-23 01:19N 46°02' W 001°41'1 0.9
2017-Jun-23 00:40N 46°03' W 001°41'3 2.8
2017-Jun-22 23:39N 46°01' W 001°38'1 3.2
2017-Jun-22 23:12N 45°60' W 001°36'1 3.3
2017-Jun-22 22:57N 45°59' W 001°36'2 3.7
2017-Jun-22 22:30N 45°58' W 001°35'2 3.6
2017-Jun-22 21:50N 45°55' W 001°35'2 3.9
2017-Jun-22 21:15N 45°53' W 001°34'9 1.6
2017-Jun-22 15:14N 45°44' W 001°37'1 4.1
2017-Jun-22 15:00N 45°45' W 001°37'15 3.8
2017-Jun-22 11:10N 45°58' W 001°45'1 3.8
2017-Jun-22 11:00N 45°59' W 001°46'3 3.8
2017-Jun-22 10:13N 46°00' W 001°50'1 3.7
2017-Jun-22 10:01N 46°01' W 001°51'6 7.0
2017-Jun-22 09:11N 46°02' W 001°58'210.8
2017-Jun-22 08:59N 46°02' W 002°02'13 7.4
2017-Jun-22 07:11N 46°13' W 002°13'3 9.0
2017-Jun-22 06:51N 46°16' W 002°14'4 9.1
2017-Jun-22 06:24N 46°20' W 002°16'4 9.1
2017-Jun-22 06:00N 46°23' W 002°18'5 9.1
2017-Jun-22 05:30N 46°27' W 002°21'5 9.3
2017-Jun-22 05:00N 46°32' W 002°23'4 8.8
2017-Jun-22 04:30N 46°36' W 002°24'5 9.8
2017-Jun-22 04:00N 46°41' W 002°26'510.0
2017-Jun-22 03:28N 46°46' W 002°29'510.0
2017-Jun-22 03:00N 46°50' W 002°32'5 9.9
2017-Jun-22 02:30N 46°55' W 002°34'510.0
2017-Jun-22 02:00N 46°59' W 002°37'4 0.6
2017-Jun-21 20:20N 47°02' W 002°41'1 2.6
2017-Jun-21 20:00N 47°02' W 002°42'0 0.2
2017-Jun-21 19:30N 47°02' W 002°42'0 0.3
2017-Jun-21 19:00N 47°02' W 002°42'0 0.4
2017-Jun-21 18:30N 47°02' W 002°42'1 1.2
2017-Jun-21 18:00N 47°03' W 002°41'3 6.0
2017-Jun-21 17:30N 47°06' W 002°41'3 6.5
2017-Jun-21 16:59N 47°09' W 002°42'3 6.1
2017-Jun-21 16:29N 47°12' W 002°43'3 5.7
2017-Jun-21 16:00N 47°14' W 002°41'4 8.0
2017-Jun-21 15:30N 47°16' W 002°35'3 5.9
2017-Jun-21 15:00N 47°19' W 002°35'3 6.5
2017-Jun-21 14:30N 47°21' W 002°31'0 0.0
2017-Jun-21 13:30N 47°21' W 002°31'0 0.0
2017-Jun-21 09:05N 47°21' W 002°31'0 0.0
2017-Jun-21 09:00N 47°21' W 002°31'0 0.0
2017-Jun-21 08:31N 47°21' W 002°31'0 0.0
2017-Jun-21 08:00N 47°21' W 002°31'0 0.0
2017-Jun-21 07:31N 47°21' W 002°31'0 0.0
2017-Jun-21 07:00N 47°21' W 002°31'0 0.0
2017-Jun-21 06:30N 47°21' W 002°31'0 0.0
2017-Jun-21 06:01N 47°21' W 002°31'0 0.0
2017-Jun-21 05:31N 47°21' W 002°31'0 0.0
2017-Jun-21 05:01N 47°21' W 002°31'0 0.0
2017-Jun-21 04:30N 47°21' W 002°31'0 0.0
2017-Jun-21 04:01N 47°21' W 002°31'0 0.0
2017-Jun-21 03:30N 47°21' W 002°31'0 0.0
2017-Jun-21 03:01N 47°21' W 002°31'0 0.0
2017-Jun-21 02:31N 47°21' W 002°31'0 0.0
2017-Jun-21 02:01N 47°21' W 002°31'0 0.0
2017-Jun-21 01:31N 47°21' W 002°31'0 0.0
2017-Jun-21 01:01N 47°21' W 002°31'0 0.0
2017-Jun-21 00:31N 47°21' W 002°31'0 0.0
2017-Jun-21 00:00N 47°21' W 002°31'0 0.0
2017-Jun-20 23:30N 47°21' W 002°31'0 0.0
2017-Jun-20 23:01N 47°21' W 002°31'0 0.0
2017-Jun-20 22:30N 47°21' W 002°31'0 0.0
2017-Jun-20 22:00N 47°21' W 002°31'0 0.0
2017-Jun-20 21:30N 47°21' W 002°31'0 0.0
2017-Jun-20 21:00N 47°21' W 002°31'0 0.0
2017-Jun-20 20:30N 47°21' W 002°31'0 0.0
2017-Jun-20 20:00N 47°21' W 002°31'0 0.0
2017-Jun-20 19:30N 47°21' W 002°31'0 0.0
2017-Jun-20 19:00N 47°21' W 002°31'0 0.0
2017-Jun-20 18:30N 47°21' W 002°31'0 0.0
2017-Jun-20 17:44N 47°21' W 002°31'0 0.0
2017-Jun-20 17:30N 47°21' W 002°31'0 0.0
2017-Jun-20 17:00N 47°21' W 002°31'0 0.0
2017-Jun-20 16:30N 47°21' W 002°31'3 5.9
2017-Jun-20 15:55N 47°19' W 002°35'410.6
2017-Jun-20 15:30N 47°15' W 002°30'4 7.9
2017-Jun-20 15:00N 47°12' W 002°27'3 5.2
2017-Jun-20 14:30N 47°10' W 002°24'1 0.6
2017-Jun-20 13:30N 47°10' W 002°24'1 3.0
2017-Jun-20 13:01N 47°08' W 002°24'0 0.8
2017-Jun-20 12:31N 47°08' W 002°23'2 4.5
2017-Jun-20 12:00N 47°08' W 002°26'2 3.7
2017-Jun-20 11:30N 47°08' W 002°24'1 2.4
2017-Jun-20 11:00N 47°08' W 002°25'0 0.9
2017-Jun-20 10:29N 47°08' W 002°26'1 2.6
2017-Jun-20 10:01N 47°09' W 002°25'1 2.1
2017-Jun-20 09:29N 47°09' W 002°26'4 7.7
2017-Jun-20 08:59N 47°12' W 002°31'2 5.1
2017-Jun-20 08:30N 47°14' W 002°30'1 2.2
2017-Jun-20 08:01N 47°15' W 002°30'1 2.0
2017-Jun-20 07:31N 47°14' W 002°29'2 3.1
2017-Jun-20 07:01N 47°13' W 002°31'5 9.7
2017-Jun-20 06:30N 47°09' W 002°34'5 9.8
2017-Jun-20 06:01N 47°04' W 002°33'3 5.5
2017-Jun-20 05:31N 47°02' W 002°37'5 9.2
2017-Jun-20 05:01N 47°07' W 002°37'4 8.8
2017-Jun-20 04:31N 47°11' W 002°36'5 9.0
2017-Jun-20 04:00N 47°16' W 002°35'4 7.9
2017-Jun-20 03:31N 47°19' W 002°33'2 4.4
2017-Jun-20 03:00N 47°21' W 002°31'0 0.0
2017-Jun-19 21:41N 47°21' W 002°31'0 0.0
2017-Jun-19 21:30N 47°21' W 002°31'0 0.0
2017-Jun-19 21:00N 47°21' W 002°31'0 0.0
2017-Jun-19 20:30N 47°21' W 002°31'1 1.1
2017-Jun-19 20:00N 47°20' W 002°31'510.6
2017-Jun-19 19:30N 47°16' W 002°35'4 8.3
2017-Jun-19 19:00N 47°12' W 002°36'5 9.9
2017-Jun-19 18:30N 47°07' W 002°38'4 6.7
2017-Jun-19 17:57N 47°03' W 002°38'2 3.5
2017-Jun-19 17:27N 47°04' W 002°37'0 0.2
2017-Jun-19 16:58N 47°04' W 002°37'0 0.3
2017-Jun-19 15:48N 47°04' W 002°37'1 2.3
2017-Jun-19 15:27N 47°03' W 002°38'2 3.8
2017-Jun-19 15:00N 47°05' W 002°37'2 2.8
2017-Jun-19 14:19N 47°03' W 002°36'1 0.4
2017-Jun-19 11:19N 47°02' W 002°37'1 4.2
2017-Jun-19 11:00N 47°03' W 002°35'11 2.7
2017-Jun-19 07:06N 47°14' W 002°33'1 8.9
2017-Jun-19 07:00N 47°14' W 002°34'2 3.5
2017-Jun-19 06:30N 47°16' W 002°34'3 6.1
2017-Jun-19 06:00N 47°19' W 002°34'3 4.9
2017-Jun-19 05:29N 47°21' W 002°31'0 0.0
2017-Jun-19 04:59N 47°21' W 002°31'0 0.0
2017-Jun-19 04:30N 47°21' W 002°31'0 0.0
2017-Jun-19 03:59N 47°21' W 002°31'2 4.0
2017-Jun-19 03:30N 47°20' W 002°33'5 9.7
2017-Jun-19 03:00N 47°18' W 002°40'4 9.1
2017-Jun-19 02:30N 47°17' W 002°47'5 9.4
2017-Jun-19 02:00N 47°16' W 002°53'5 9.3
2017-Jun-19 01:30N 47°14' W 002°60'4 8.7
2017-Jun-19 01:00N 47°13' W 003°06'5 9.2
2017-Jun-19 00:30N 47°12' W 003°12'5 9.6
2017-Jun-19 00:00N 47°11' W 003°19'5 9.3
2017-Jun-18 23:30N 47°09' W 003°26'5 9.3
2017-Jun-18 23:00N 47°08' W 003°32'5 9.4
2017-Jun-18 22:30N 47°07' W 003°39'45 4.9
2017-Jun-18 13:18N 46°43' W 004°34'5 1.0
2017-Jun-18 08:42N 46°39' W 004°29'1 3.7
2017-Jun-18 08:29N 46°38' W 004°29'3 3.8
2017-Jun-18 07:44N 46°36' W 004°29'10 0.7
2017-Jun-17 17:00N 46°29' W 004°18'8 0.5
2017-Jun-17 00:34N 46°37' W 004°21'0 3.3
2017-Jun-17 00:27N 46°37' W 004°21'47 1.7
2017-Jun-15 20:34N 47°18' W 003°48'1 8.7
2017-Jun-15 20:28N 47°18' W 003°47'4 8.6
2017-Jun-15 19:57N 47°17' W 003°40'4 8.5
2017-Jun-15 19:30N 47°17' W 003°35'4 8.4
2017-Jun-15 19:00N 47°16' W 003°28'4 8.6
2017-Jun-15 18:30N 47°15' W 003°22'4 8.4
2017-Jun-15 18:00N 47°15' W 003°16'4 8.4
2017-Jun-15 17:30N 47°15' W 003°10'4 8.6
2017-Jun-15 17:00N 47°14' W 003°04'4 8.5
2017-Jun-15 16:30N 47°15' W 002°58'4 8.6
2017-Jun-15 16:00N 47°17' W 002°52'4 8.7
2017-Jun-15 15:30N 47°18' W 002°45'4 8.7
2017-Jun-15 15:00N 47°19' W 002°39'5 9.0
2017-Jun-15 14:30N 47°20' W 002°33'1 0.3
2017-Jun-15 10:33N 47°21' W 002°31'0 0.0
2017-Jun-15 10:30N 47°21' W 002°31'2 4.0
2017-Jun-15 10:00N 47°20' W 002°33'2 0.2
2017-Jun-14 20:13N 47°21' W 002°31'0 0.5
2017-Jun-14 20:00N 47°21' W 002°31'2 3.1
2017-Jun-14 19:27N 47°20' W 002°33'4 8.3
2017-Jun-14 19:01N 47°19' W 002°38'3 5.2
2017-Jun-14 18:26N 47°18' W 002°42'4 8.6
2017-Jun-14 18:01N 47°20' W 002°37'3 5.2
2017-Jun-14 17:30N 47°20' W 002°34'  
Track history (hours):
 
Tides and Currents Weather Stations Pressure Air Temp Water Temp Dewpoint Dewpoint Depression Visibility Wind Speed Wind Dir Waves Ship Positions

F/V Atalante

Last reported at 2017-Jun-23 11:35 UTC. Time now 2017-Jun-23 12:14 UTC.
Position N 45°57' W 001°35'.

Length 21 m; draft 3.9 m.

Type: Fishing. MMSI: 228854000.

Date/timePositionNaut miles runAvg speedWind from/ knotsBaromVisibWave heightAir tempDewpointWater temp
2017-Jun-23 11:35N 45°57' W 001°35'0 4.2
2017-Jun-23 11:30N 45°57' W 001°35'2 2.4
2017-Jun-23 10:40N 45°55' W 001°35'7 2.9
2017-Jun-23 08:09N 46°02' W 001°38'0 3.1
2017-Jun-23 08:00N 46°01' W 001°38'2 3.2
2017-Jun-23 07:29N 46°00' W 001°40'4 2.8
2017-Jun-23 06:05N 45°59' W 001°45'0 2.5
2017-Jun-23 05:58N 45°58' W 001°45'6 2.1
2017-Jun-23 02:56N 46°00' W 001°36'4 2.5
2017-Jun-23 01:19N 46°02' W 001°41'1 0.9
2017-Jun-23 00:40N 46°03' W 001°41'3 2.8
2017-Jun-22 23:39N 46°01' W 001°38'1 3.2
2017-Jun-22 23:12N 45°60' W 001°36'1 3.3
2017-Jun-22 22:57N 45°59' W 001°36'2 3.7
2017-Jun-22 22:30N 45°58' W 001°35'2 3.6
2017-Jun-22 21:50N 45°55' W 001°35'2 3.9
2017-Jun-22 21:15N 45°53' W 001°34'9 1.6
2017-Jun-22 15:14N 45°44' W 001°37'1 4.1
2017-Jun-22 15:00N 45°45' W 001°37'15 3.8
2017-Jun-22 11:10N 45°58' W 001°45'1 3.8
2017-Jun-22 11:00N 45°59' W 001°46'3 3.8
2017-Jun-22 10:13N 46°00' W 001°50'1 3.7
2017-Jun-22 10:01N 46°01' W 001°51'6 7.0
2017-Jun-22 09:11N 46°02' W 001°58'210.8
2017-Jun-22 08:59N 46°02' W 002°02'13 7.4
2017-Jun-22 07:11N 46°13' W 002°13'3 9.0
2017-Jun-22 06:51N 46°16' W 002°14'4 9.1
2017-Jun-22 06:24N 46°20' W 002°16'4 9.1
2017-Jun-22 06:00N 46°23' W 002°18'5 9.1
2017-Jun-22 05:30N 46°27' W 002°21'5 9.3
2017-Jun-22 05:00N 46°32' W 002°23'4 8.8
2017-Jun-22 04:30N 46°36' W 002°24'5 9.8
2017-Jun-22 04:00N 46°41' W 002°26'510.0
2017-Jun-22 03:28N 46°46' W 002°29'510.0
2017-Jun-22 03:00N 46°50' W 002°32'5 9.9
2017-Jun-22 02:30N 46°55' W 002°34'510.0
2017-Jun-22 02:00N 46°59' W 002°37'4 0.6
2017-Jun-21 20:20N 47°02' W 002°41'1 2.6
2017-Jun-21 20:00N 47°02' W 002°42'0 0.2
2017-Jun-21 19:30N 47°02' W 002°42'0 0.3
2017-Jun-21 19:00N 47°02' W 002°42'0 0.4
2017-Jun-21 18:30N 47°02' W 002°42'1 1.2
2017-Jun-21 18:00N 47°03' W 002°41'3 6.0
2017-Jun-21 17:30N 47°06' W 002°41'3 6.5
2017-Jun-21 16:59N 47°09' W 002°42'3 6.1
2017-Jun-21 16:29N 47°12' W 002°43'3 5.7
2017-Jun-21 16:00N 47°14' W 002°41'4 8.0
2017-Jun-21 15:30N 47°16' W 002°35'3 5.9
2017-Jun-21 15:00N 47°19' W 002°35'3 6.5
2017-Jun-21 14:30N 47°21' W 002°31'0 0.0
2017-Jun-21 13:30N 47°21' W 002°31'0 0.0
2017-Jun-21 09:05N 47°21' W 002°31'0 0.0
2017-Jun-21 09:00N 47°21' W 002°31'0 0.0
2017-Jun-21 08:31N 47°21' W 002°31'0 0.0
2017-Jun-21 08:00N 47°21' W 002°31'0 0.0
2017-Jun-21 07:31N 47°21' W 002°31'0 0.0
2017-Jun-21 07:00N 47°21' W 002°31'0 0.0
2017-Jun-21 06:30N 47°21' W 002°31'0 0.0
2017-Jun-21 06:01N 47°21' W 002°31'0 0.0
2017-Jun-21 05:31N 47°21' W 002°31'0 0.0
2017-Jun-21 05:01N 47°21' W 002°31'0 0.0
2017-Jun-21 04:30N 47°21' W 002°31'0 0.0
2017-Jun-21 04:01N 47°21' W 002°31'0 0.0
2017-Jun-21 03:30N 47°21' W 002°31'0 0.0
2017-Jun-21 03:01N 47°21' W 002°31'0 0.0
2017-Jun-21 02:31N 47°21' W 002°31'0 0.0
2017-Jun-21 02:01N 47°21' W 002°31'0 0.0
2017-Jun-21 01:31N 47°21' W 002°31'0 0.0
2017-Jun-21 01:01N 47°21' W 002°31'0 0.0
2017-Jun-21 00:31N 47°21' W 002°31'0 0.0
2017-Jun-21 00:00N 47°21' W 002°31'0 0.0
2017-Jun-20 23:30N 47°21' W 002°31'0 0.0
2017-Jun-20 23:01N 47°21' W 002°31'0 0.0
2017-Jun-20 22:30N 47°21' W 002°31'0 0.0
2017-Jun-20 22:00N 47°21' W 002°31'0 0.0
2017-Jun-20 21:30N 47°21' W 002°31'0 0.0
2017-Jun-20 21:00N 47°21' W 002°31'0 0.0
2017-Jun-20 20:30N 47°21' W 002°31'0 0.0
2017-Jun-20 20:00N 47°21' W 002°31'0 0.0
2017-Jun-20 19:30N 47°21' W 002°31'0 0.0
2017-Jun-20 19:00N 47°21' W 002°31'0 0.0
2017-Jun-20 18:30N 47°21' W 002°31'0 0.0
2017-Jun-20 17:44N 47°21' W 002°31'0 0.0
2017-Jun-20 17:30N 47°21' W 002°31'0 0.0
2017-Jun-20 17:00N 47°21' W 002°31'0 0.0
2017-Jun-20 16:30N 47°21' W 002°31'3 5.9
2017-Jun-20 15:55N 47°19' W 002°35'410.6
2017-Jun-20 15:30N 47°15' W 002°30'4 7.9
2017-Jun-20 15:00N 47°12' W 002°27'3 5.2
2017-Jun-20 14:30N 47°10' W 002°24'1 0.6
2017-Jun-20 13:30N 47°10' W 002°24'1 3.0
2017-Jun-20 13:01N 47°08' W 002°24'0 0.8
2017-Jun-20 12:31N 47°08' W 002°23'2 4.5
2017-Jun-20 12:00N 47°08' W 002°26'2 3.7
2017-Jun-20 11:30N 47°08' W 002°24'1 2.4
2017-Jun-20 11:00N 47°08' W 002°25'0 0.9
2017-Jun-20 10:29N 47°08' W 002°26'1 2.6
2017-Jun-20 10:01N 47°09' W 002°25'1 2.1
2017-Jun-20 09:29N 47°09' W 002°26'4 7.7
2017-Jun-20 08:59N 47°12' W 002°31'2 5.1
2017-Jun-20 08:30N 47°14' W 002°30'1 2.2
2017-Jun-20 08:01N 47°15' W 002°30'1 2.0
2017-Jun-20 07:31N 47°14' W 002°29'2 3.1
2017-Jun-20 07:01N 47°13' W 002°31'5 9.7
2017-Jun-20 06:30N 47°09' W 002°34'5 9.8
2017-Jun-20 06:01N 47°04' W 002°33'3 5.5
2017-Jun-20 05:31N 47°02' W 002°37'5 9.2
2017-Jun-20 05:01N 47°07' W 002°37'4 8.8
2017-Jun-20 04:31N 47°11' W 002°36'5 9.0
2017-Jun-20 04:00N 47°16' W 002°35'4 7.9
2017-Jun-20 03:31N 47°19' W 002°33'2 4.4
2017-Jun-20 03:00N 47°21' W 002°31'0 0.0
2017-Jun-19 21:41N 47°21' W 002°31'0 0.0
2017-Jun-19 21:30N 47°21' W 002°31'0 0.0
2017-Jun-19 21:00N 47°21' W 002°31'0 0.0
2017-Jun-19 20:30N 47°21' W 002°31'1 1.1
2017-Jun-19 20:00N 47°20' W 002°31'510.6
2017-Jun-19 19:30N 47°16' W 002°35'4 8.3
2017-Jun-19 19:00N 47°12' W 002°36'5 9.9
2017-Jun-19 18:30N 47°07' W 002°38'4 6.7
2017-Jun-19 17:57N 47°03' W 002°38'2 3.5
2017-Jun-19 17:27N 47°04' W 002°37'0 0.2
2017-Jun-19 16:58N 47°04' W 002°37'0 0.3
2017-Jun-19 15:48N 47°04' W 002°37'1 2.3
2017-Jun-19 15:27N 47°03' W 002°38'2 3.8
2017-Jun-19 15:00N 47°05' W 002°37'2 2.8
2017-Jun-19 14:19N 47°03' W 002°36'1 0.4
2017-Jun-19 11:19N 47°02' W 002°37'1 4.2
2017-Jun-19 11:00N 47°03' W 002°35'11 2.7
2017-Jun-19 07:06N 47°14' W 002°33'1 8.9
2017-Jun-19 07:00N 47°14' W 002°34'2 3.5
2017-Jun-19 06:30N 47°16' W 002°34'3 6.1
2017-Jun-19 06:00N 47°19' W 002°34'3 4.9
2017-Jun-19 05:29N 47°21' W 002°31'0 0.0
2017-Jun-19 04:59N 47°21' W 002°31'0 0.0
2017-Jun-19 04:30N 47°21' W 002°31'0 0.0
2017-Jun-19 03:59N 47°21' W 002°31'2 4.0
2017-Jun-19 03:30N 47°20' W 002°33'5 9.7
2017-Jun-19 03:00N 47°18' W 002°40'4 9.1
2017-Jun-19 02:30N 47°17' W 002°47'5 9.4
2017-Jun-19 02:00N 47°16' W 002°53'5 9.3
2017-Jun-19 01:30N 47°14' W 002°60'4 8.7
2017-Jun-19 01:00N 47°13' W 003°06'5 9.2
2017-Jun-19 00:30N 47°12' W 003°12'5 9.6
2017-Jun-19 00:00N 47°11' W 003°19'5 9.3
2017-Jun-18 23:30N 47°09' W 003°26'5 9.3
2017-Jun-18 23:00N 47°08' W 003°32'5 9.4
2017-Jun-18 22:30N 47°07' W 003°39'45 4.9
2017-Jun-18 13:18N 46°43' W 004°34'5 1.0
2017-Jun-18 08:42N 46°39' W 004°29'1 3.7
2017-Jun-18 08:29N 46°38' W 004°29'3 3.8
2017-Jun-18 07:44N 46°36' W 004°29'10 0.7
2017-Jun-17 17:00N 46°29' W 004°18'8 0.5
2017-Jun-17 00:34N 46°37' W 004°21'0 3.3
2017-Jun-17 00:27N 46°37' W 004°21'47 1.7
2017-Jun-15 20:34N 47°18' W 003°48'1 8.7
2017-Jun-15 20:28N 47°18' W 003°47'4 8.6
2017-Jun-15 19:57N 47°17' W 003°40'4 8.5
2017-Jun-15 19:30N 47°17' W 003°35'4 8.4
2017-Jun-15 19:00N 47°16' W 003°28'4 8.6
2017-Jun-15 18:30N 47°15' W 003°22'4 8.4
2017-Jun-15 18:00N 47°15' W 003°16'4 8.4
2017-Jun-15 17:30N 47°15' W 003°10'4 8.6
2017-Jun-15 17:00N 47°14' W 003°04'4 8.5
2017-Jun-15 16:30N 47°15' W 002°58'4 8.6
2017-Jun-15 16:00N 47°17' W 002°52'4 8.7
2017-Jun-15 15:30N 47°18' W 002°45'4 8.7
2017-Jun-15 15:00N 47°19' W 002°39'5 9.0
2017-Jun-15 14:30N 47°20' W 002°33'1 0.3
2017-Jun-15 10:33N 47°21' W 002°31'0 0.0
2017-Jun-15 10:30N 47°21' W 002°31'2 4.0
2017-Jun-15 10:00N 47°20' W 002°33'2 0.2
2017-Jun-14 20:13N 47°21' W 002°31'0 0.5
2017-Jun-14 20:00N 47°21' W 002°31'2 3.1
2017-Jun-14 19:27N 47°20' W 002°33'4 8.3
2017-Jun-14 19:01N 47°19' W 002°38'3 5.2
2017-Jun-14 18:26N 47°18' W 002°42'4 8.6
2017-Jun-14 18:01N 47°20' W 002°37'3 5.2
2017-Jun-14 17:30N 47°20' W 002°34'  

Dump ship's entire track history